Time;durP1;ratioP1;P1;durP2;ratioP2;P2;SDS_P1;SDS_P2;PMS_P1;PMS_P2;Temp;Humidity;BMP_temperature;BMP_pressure;BME280_temperature;BME280_humidity;BME280_pressure;Samples;Min_cycle;Max_cycle;Signal;HPM_P1;HPM_P2
2023/03/02 00:00:12;;;;;;;6.97;5.30;;;;;;;;;;5039676;28;20069;-85
2023/03/02 00:02:39;;;;;;;7.03;5.57;;;;;;;;;;5038230;28;20063;-75
2023/03/02 00:05:06;;;;;;;25.58;15.02;;;;;;;;;;5041875;28;20036;-73
2023/03/02 00:07:33;;;;;;;12.32;8.60;;;;;;;;;;5040159;28;20029;-73
2023/03/02 00:09:58;;;;;;;9.68;7.10;;;;;;;;;;5036909;28;20025;-76
2023/03/02 00:12:25;;;;;;;6.25;5.30;;;;;;;;;;5039133;28;20356;-75
2023/03/02 00:14:51;;;;;;;5.80;5.18;;;;;;;;;;5036321;28;20043;-77
2023/03/02 00:17:16;;;;;;;6.53;5.20;;;;;;;;;;5034253;28;20025;-73
2023/03/02 00:19:43;;;;;;;6.05;5.45;;;;;;;;;;5036422;28;20037;-85
2023/03/02 00:22:09;;;;;;;6.88;5.38;;;;;;;;;;5036179;28;20115;-75
2023/03/02 00:24:34;;;;;;;13.68;8.50;;;;;;;;;;5036239;28;20041;-73
2023/03/02 00:26:59;;;;;;;10.55;6.97;;;;;;;;;;5039261;28;20074;-75
2023/03/02 00:29:25;;;;;;;14.85;8.65;;;;;;;;;;5031311;28;20099;-73
2023/03/02 00:31:50;;;;;;;13.52;8.50;;;;;;;;;;5035000;28;20468;-73
2023/03/02 00:34:15;;;;;;;9.98;7.80;;;;;;;;;;5034637;28;20024;-77
2023/03/02 00:36:41;;;;;;;10.00;7.63;;;;;;;;;;5035485;28;20407;-82
2023/03/02 00:39:06;;;;;;;8.77;6.95;;;;;;;;;;5036680;28;20017;-74
2023/03/02 00:41:31;;;;;;;25.42;12.93;;;;;;;;;;5035180;28;20025;-74
2023/03/02 00:43:57;;;;;;;25.02;11.32;;;;;;;;;;5036002;28;20775;-81
2023/03/02 00:46:23;;;;;;;9.10;7.15;;;;;;;;;;5034130;28;20068;-76
2023/03/02 00:48:49;;;;;;;9.55;7.75;;;;;;;;;;5036020;28;20032;-74
2023/03/02 00:51:15;;;;;;;9.73;7.72;;;;;;;;;;5032947;28;20059;-75
2023/03/02 00:53:40;;;;;;;7.72;6.78;;;;;;;;;;5033641;28;20397;-73
2023/03/02 00:56:06;;;;;;;6.97;6.05;;;;;;;;;;5030860;28;20108;-75
2023/03/02 00:58:31;;;;;;;7.95;6.75;;;;;;;;;;5035695;28;20107;-75
2023/03/02 01:00:57;;;;;;;9.70;7.50;;;;;;;;;;5032656;28;20044;-84
2023/03/02 01:03:23;;;;;;;8.35;7.40;;;;;;;;;;5033364;28;20025;-73
2023/03/02 01:05:48;;;;;;;7.32;6.20;;;;;;;;;;5036148;28;20032;-76
2023/03/02 01:08:13;;;;;;;6.60;5.90;;;;;;;;;;5033387;28;20017;-73
2023/03/02 01:10:39;;;;;;;6.68;5.97;;;;;;;;;;5033269;28;20041;-81
2023/03/02 01:13:04;;;;;;;7.15;6.45;;;;;;;;;;5033735;28;20036;-73
2023/03/02 01:15:30;;;;;;;7.93;6.45;;;;;;;;;;5033248;28;20025;-80
2023/03/02 01:17:55;;;;;;;6.28;5.68;;;;;;;;;;5032946;28;20035;-74
2023/03/02 01:20:20;;;;;;;6.70;6.00;;;;;;;;;;5031461;28;20032;-84
2023/03/02 01:22:46;;;;;;;7.50;6.30;;;;;;;;;;5031728;28;20448;-78
2023/03/02 01:25:14;;;;;;;7.88;6.85;;;;;;;;;;5033728;28;20064;-76
2023/03/02 01:27:39;;;;;;;7.45;6.25;;;;;;;;;;5031781;28;20032;-74
2023/03/02 01:30:05;;;;;;;7.32;6.60;;;;;;;;;;5033853;28;20411;-82
2023/03/02 01:32:30;;;;;;;6.47;5.88;;;;;;;;;;5033479;28;20128;-75
2023/03/02 01:34:55;;;;;;;7.03;6.32;;;;;;;;;;5033697;28;20427;-79
2023/03/02 01:37:21;;;;;;;18.67;12.55;;;;;;;;;;5031180;28;20028;-80
2023/03/02 01:39:47;;;;;;;27.02;21.58;;;;;;;;;;5035175;28;20356;-73
2023/03/02 01:42:12;;;;;;;20.58;15.73;;;;;;;;;;5033689;28;20037;-74
2023/03/02 01:44:38;;;;;;;11.75;10.05;;;;;;;;;;5033058;28;20033;-74
2023/03/02 01:47:05;;;;;;;12.85;9.98;;;;;;;;;;5035053;28;20049;-73
2023/03/02 01:49:33;;;;;;;7.38;6.60;;;;;;;;;;5033929;28;20018;-74
2023/03/02 01:51:59;;;;;;;10.40;8.35;;;;;;;;;;5027653;28;20039;-77
2023/03/02 01:54:24;;;;;;;10.55;9.45;;;;;;;;;;5030501;28;20029;-73
2023/03/02 01:56:51;;;;;;;12.55;9.55;;;;;;;;;;5030751;28;20483;-75
2023/03/02 01:59:19;;;;;;;10.60;7.85;;;;;;;;;;5030144;28;20036;-73
2023/03/02 02:01:46;;;;;;;8.02;6.95;;;;;;;;;;5032961;28;20048;-75
2023/03/02 02:04:12;;;;;;;10.00;8.38;;;;;;;;;;5066446;28;20040;-75
2023/03/02 02:06:38;;;;;;;9.98;7.75;;;;;;;;;;5030072;28;20025;-77
2023/03/02 02:09:07;;;;;;;7.65;6.10;;;;;;;;;;5032938;28;20029;-76
2023/03/02 02:11:32;;;;;;;6.15;5.55;;;;;;;;;;5034544;28;20445;-81
2023/03/02 02:13:59;;;;;;;8.63;6.68;;;;;;;;;;5032155;28;20039;-72
2023/03/02 02:16:25;;;;;;;6.68;5.72;;;;;;;;;;5035721;28;20083;-79
2023/03/02 02:18:50;;;;;;;6.50;5.75;;;;;;;;;;5031092;28;20061;-76
2023/03/02 02:21:17;;;;;;;4.60;4.18;;;;;;;;;;5031236;28;20393;-81
2023/03/02 02:23:48;;;;;;;5.70;5.20;;;;;;;;;;5032885;28;20407;-76
2023/03/02 02:26:23;;;;;;;8.02;6.50;;;;;;;;;;5034258;28;20083;-77
2023/03/02 02:28:59;;;;;;;9.43;6.93;;;;;;;;;;5036587;28;20111;-80
2023/03/02 02:31:27;;;;;;;7.03;6.32;;;;;;;;;;5030146;28;20025;-73
2023/03/02 02:33:55;;;;;;;7.00;5.07;;;;;;;;;;5032524;28;20040;-76
2023/03/02 02:36:23;;;;;;;5.63;4.63;;;;;;;;;;5034793;28;20021;-72
2023/03/02 02:38:51;;;;;;;11.27;7.88;;;;;;;;;;5032527;28;20456;-75
2023/03/02 02:41:19;;;;;;;7.75;6.47;;;;;;;;;;5029956;28;20103;-76
2023/03/02 02:43:44;;;;;;;6.47;5.07;;;;;;;;;;5031541;28;20037;-74
2023/03/02 02:46:10;;;;;;;5.07;4.47;;;;;;;;;;5032974;28;20041;-75
2023/03/02 02:48:35;;;;;;;5.43;4.93;;;;;;;;;;5032460;28;20036;-74
2023/03/02 02:51:01;;;;;;;5.93;5.22;;;;;;;;;;5035371;28;20500;-76
2023/03/02 02:53:42;;;;;;;5.72;4.57;;;;;;;;;;5034130;28;20052;-78
2023/03/02 02:56:09;;;;;;;4.75;4.35;;;;;;;;;;5030218;28;20115;-76
2023/03/02 02:58:38;;;;;;;5.00;4.43;;;;;;;;;;5033649;28;20026;-75
2023/03/02 03:01:03;;;;;;;5.47;4.97;;;;;;;;;;5036436;28;20033;-80
2023/03/02 03:03:34;;;;;;;5.22;4.70;;;;;;;;;;5029444;28;20064;-73
2023/03/02 03:06:04;;;;;;;6.93;4.82;;;;;;;;;;5036344;28;20071;-74
2023/03/02 03:08:44;;;;;;;5.28;4.78;;;;;;;;;;5034610;28;20138;-73
2023/03/02 03:11:11;;;;;;;6.28;5.10;;;;;;;;;;5032326;28;20029;-80
2023/03/02 03:13:37;;;;;;;5.15;4.65;;;;;;;;;;5035835;28;20056;-75
2023/03/02 03:16:04;;;;;;;6.13;5.50;;;;;;;;;;5032256;28;20028;-73
2023/03/02 03:18:30;;;;;;;5.97;5.20;;;;;;;;;;5028641;28;20033;-79
2023/03/02 03:20:56;;;;;;;5.50;4.55;;;;;;;;;;5030347;28;20041;-72
2023/03/02 03:23:21;;;;;;;4.95;4.45;;;;;;;;;;5034045;28;20037;-74
2023/03/02 03:25:46;;;;;;;4.95;4.40;;;;;;;;;;5031567;28;20041;-73
2023/03/02 03:28:12;;;;;;;4.78;4.28;;;;;;;;;;5032355;28;20436;-73
2023/03/02 03:30:37;;;;;;;5.38;4.28;;;;;;;;;;5034611;28;20060;-73
2023/03/02 03:33:03;;;;;;;5.03;4.53;;;;;;;;;;5033150;28;20033;-73
2023/03/02 03:35:28;;;;;;;4.53;4.13;;;;;;;;;;5034975;28;20503;-84
2023/03/02 03:37:54;;;;;;;4.72;4.28;;;;;;;;;;5032892;28;20135;-80
2023/03/02 03:40:19;;;;;;;4.88;4.18;;;;;;;;;;5034531;28;20083;-76
2023/03/02 03:42:45;;;;;;;4.45;3.90;;;;;;;;;;5028636;28;20033;-83
2023/03/02 03:45:10;;;;;;;3.65;3.35;;;;;;;;;;5030067;28;20045;-77
2023/03/02 03:47:36;;;;;;;4.35;3.65;;;;;;;;;;5034310;28;20120;-73
2023/03/02 03:50:01;;;;;;;5.15;4.15;;;;;;;;;;5036526;28;20024;-79
2023/03/02 03:52:29;;;;;;;5.85;4.88;;;;;;;;;;5034010;28;20498;-76
2023/03/02 03:54:58;;;;;;;4.20;3.80;;;;;;;;;;5037479;28;20056;-82
2023/03/02 03:57:24;;;;;;;4.17;3.67;;;;;;;;;;5037308;28;20025;-79
2023/03/02 03:59:49;;;;;;;4.40;4.00;;;;;;;;;;5035137;28;20106;-75
2023/03/02 04:02:14;;;;;;;4.22;3.83;;;;;;;;;;5036144;28;20025;-75
2023/03/02 04:04:39;;;;;;;4.47;4.07;;;;;;;;;;5037228;28;20036;-80
2023/03/02 04:07:05;;;;;;;4.80;4.15;;;;;;;;;;5039101;28;20203;-74
2023/03/02 04:09:32;;;;;;;5.28;3.90;;;;;;;;;;5031842;28;20032;-74
2023/03/02 04:11:58;;;;;;;5.35;3.47;;;;;;;;;;5037850;28;20024;-77
2023/03/02 04:14:23;;;;;;;5.40;3.47;;;;;;;;;;5039226;28;20039;-74
2023/03/02 04:16:49;;;;;;;3.45;3.15;;;;;;;;;;5036604;28;20456;-76
2023/03/02 04:19:16;;;;;;;3.92;3.47;;;;;;;;;;5033638;28;20040;-82
2023/03/02 04:21:46;;;;;;;4.10;3.10;;;;;;;;;;5029501;28;20453;-75
2023/03/02 04:24:11;;;;;;;;;;;;;;;;;;5032482;28;20102;-78
2023/03/02 04:26:37;;;;;;;4.03;3.10;;;;;;;;;;5037796;28;19921;-73
2023/03/02 04:29:03;;;;;;;3.42;3.13;;;;;;;;;;5034256;28;20044;-74
2023/03/02 04:31:30;;;;;;;3.55;3.25;;;;;;;;;;5036851;28;20448;-74
2023/03/02 04:33:55;;;;;;;2.92;2.63;;;;;;;;;;5034707;28;20029;-75
2023/03/02 04:36:20;;;;;;;3.50;3.17;;;;;;;;;;5035641;28;20036;-74
2023/03/02 04:38:46;;;;;;;3.00;2.70;;;;;;;;;;5038132;28;20367;-72
2023/03/02 04:41:12;;;;;;;3.55;2.80;;;;;;;;;;5037283;28;20032;-73
2023/03/02 04:43:37;;;;;;;3.40;2.72;;;;;;;;;;5037676;28;20033;-74
2023/03/02 04:46:02;;;;;;;5.28;4.78;;;;;;;;;;5031044;28;20045;-73
2023/03/02 04:48:28;;;;;;;3.85;3.55;;;;;;;;;;5028701;28;20065;-79
2023/03/02 04:50:54;;;;;;;3.13;2.80;;;;;;;;;;5035971;28;20024;-78
2023/03/02 04:53:19;;;;;;;3.42;3.13;;;;;;;;;;5037217;28;20451;-72
2023/03/02 04:55:45;;;;;;;3.95;3.65;;;;;;;;;;5035317;28;20033;-81
2023/03/02 04:58:10;;;;;;;3.88;3.47;;;;;;;;;;5036621;28;20433;-74
2023/03/02 05:00:35;;;;;;;3.40;3.10;;;;;;;;;;5031203;28;20037;-74
2023/03/02 05:03:01;;;;;;;2.83;2.58;;;;;;;;;;5026361;28;20042;-72
2023/03/02 05:05:27;;;;;;;3.50;3.08;;;;;;;;;;5026616;28;20030;-75
2023/03/02 05:07:53;;;;;;;4.70;3.75;;;;;;;;;;5034470;28;20352;-79
2023/03/02 05:10:18;;;;;;;12.30;9.70;;;;;;;;;;5026496;28;20061;-74
2023/03/02 05:12:53;;;;;;;13.68;11.52;;;;;;;;;;5037913;28;20032;-76
2023/03/02 05:15:23;;;;;;;5.20;4.70;;;;;;;;;;5032786;28;20028;-76
2023/03/02 05:17:48;;;;;;;38.45;29.98;;;;;;;;;;5028513;28;20037;-72
2023/03/02 05:20:14;;;;;;;9.18;8.25;;;;;;;;;;5028734;28;20025;-79
2023/03/02 05:22:39;;;;;;;19.75;17.17;;;;;;;;;;5026349;28;20094;-72
2023/03/02 05:25:05;;;;;;;204.07;131.07;;;;;;;;;;5030963;28;20143;-79
2023/03/02 05:27:30;;;;;;;68.93;42.35;;;;;;;;;;5033953;28;20028;-72
2023/03/02 05:29:55;;;;;;;94.47;56.38;;;;;;;;;;5037203;28;20429;-80
2023/03/02 05:32:21;;;;;;;43.08;27.63;;;;;;;;;;5036824;28;20033;-75
2023/03/02 05:34:46;;;;;;;15.35;11.07;;;;;;;;;;5030862;28;20045;-73
2023/03/02 05:37:11;;;;;;;15.50;10.50;;;;;;;;;;5025914;28;20156;-73
2023/03/02 05:39:38;;;;;;;23.48;19.60;;;;;;;;;;5027862;28;21466;-73
2023/03/02 05:42:03;;;;;;;22.30;19.50;;;;;;;;;;5022704;28;20037;-74
2023/03/02 05:44:28;;;;;;;51.95;39.72;;;;;;;;;;5024703;28;20048;-78
2023/03/02 05:46:54;;;;;;;31.70;26.25;;;;;;;;;;5026112;28;20118;-75
2023/03/02 05:49:19;;;;;;;10.15;9.10;;;;;;;;;;5031558;28;20348;-75
2023/03/02 05:51:44;;;;;;;27.45;23.95;;;;;;;;;;5034406;28;20637;-81
2023/03/02 05:54:10;;;;;;;13.23;11.82;;;;;;;;;;5033629;28;20076;-78
2023/03/02 05:56:35;;;;;;;12.88;11.57;;;;;;;;;;5031162;28;20506;-76
2023/03/02 05:59:00;;;;;;;7.82;7.03;;;;;;;;;;5034623;28;20025;-74
2023/03/02 06:01:25;;;;;;;82.90;56.78;;;;;;;;;;5035742;28;20717;-75
2023/03/02 06:03:51;;;;;;;35.33;24.90;;;;;;;;;;5037214;28;20060;-75
2023/03/02 06:06:16;;;;;;;31.73;21.92;;;;;;;;;;5034413;28;20014;-74
2023/03/02 06:08:42;;;;;;;10.00;7.95;;;;;;;;;;5035594;28;20060;-75
2023/03/02 06:11:07;;;;;;;52.60;30.58;;;;;;;;;;5037372;28;20403;-75
2023/03/02 06:13:33;;;;;;;147.98;79.90;;;;;;;;;;5033879;28;20033;-77
2023/03/02 06:15:58;;;;;;;39.08;25.55;;;;;;;;;;5032782;28;20107;-77
2023/03/02 06:18:23;;;;;;;17.75;9.88;;;;;;;;;;5035749;28;20033;-80
2023/03/02 06:20:49;;;;;;;7.65;6.85;;;;;;;;;;5035505;28;20455;-79
2023/03/02 06:23:15;;;;;;;31.00;20.00;;;;;;;;;;5031659;28;20036;-76
2023/03/02 06:25:46;;;;;;;81.25;47.45;;;;;;;;;;5032219;28;20132;-76
2023/03/02 06:28:12;;;;;;;17.60;11.45;;;;;;;;;;5035975;28;20527;-75
2023/03/02 06:30:37;;;;;;;64.68;42.38;;;;;;;;;;5034669;28;20096;-82
2023/03/02 06:33:03;;;;;;;26.63;19.52;;;;;;;;;;5035976;28;21176;-80
2023/03/02 06:35:28;;;;;;;11.65;9.80;;;;;;;;;;5033599;28;20328;-77
2023/03/02 06:37:53;;;;;;;12.50;9.45;;;;;;;;;;5036092;28;20094;-75
2023/03/02 06:40:20;;;;;;;8.00;6.80;;;;;;;;;;5034083;28;20499;-80
2023/03/02 06:42:45;;;;;;;8.82;7.43;;;;;;;;;;5031957;28;20087;-75
2023/03/02 06:45:11;;;;;;;10.50;8.15;;;;;;;;;;5026970;28;20102;-73
2023/03/02 06:47:36;;;;;;;7.82;6.90;;;;;;;;;;5034398;28;20040;-74
2023/03/02 06:50:02;;;;;;;35.85;23.50;;;;;;;;;;5035729;28;20025;-72
2023/03/02 06:52:27;;;;;;;28.27;20.70;;;;;;;;;;5034066;28;20409;-74
2023/03/02 06:54:53;;;;;;;55.38;36.35;;;;;;;;;;5035945;28;20033;-83
2023/03/02 06:57:18;;;;;;;12.35;10.05;;;;;;;;;;5035017;28;20094;-78
2023/03/02 06:59:44;;;;;;;7.75;6.95;;;;;;;;;;5036450;28;20380;-76
2023/03/02 07:02:10;;;;;;;250.60;138.38;;;;;;;;;;5030544;28;20033;-78
2023/03/02 07:04:35;;;;;;;23.55;15.40;;;;;;;;;;5022939;28;20052;-71
2023/03/02 07:07:00;;;;;;;19.75;14.13;;;;;;;;;;5024766;28;20021;-73
2023/03/02 07:09:26;;;;;;;54.85;35.10;;;;;;;;;;5029253;28;20075;-72
2023/03/02 07:11:51;;;;;;;18.00;12.80;;;;;;;;;;5023862;28;20029;-72
2023/03/02 07:14:16;;;;;;;12.82;9.07;;;;;;;;;;5027452;28;20091;-78
2023/03/02 07:16:42;;;;;;;48.20;25.58;;;;;;;;;;5025592;28;20021;-74
2023/03/02 07:19:12;;;;;;;36.22;19.30;;;;;;;;;;5029862;28;20120;-74
2023/03/02 07:21:37;;;;;;;36.55;24.55;;;;;;;;;;5035285;28;20078;-72
2023/03/02 07:24:02;;;;;;;65.07;37.90;;;;;;;;;;5035657;28;20026;-79
2023/03/02 07:26:27;;;;;;;185.20;100.38;;;;;;;;;;5035120;28;20559;-75
2023/03/02 07:28:53;;;;;;;89.47;46.97;;;;;;;;;;5035550;28;20736;-72
2023/03/02 07:31:18;;;;;;;20.77;14.43;;;;;;;;;;5040307;28;20112;-81
2023/03/02 07:33:43;;;;;;;20.05;13.00;;;;;;;;;;5038633;28;20028;-72
2023/03/02 07:36:09;;;;;;;47.15;28.90;;;;;;;;;;5040944;28;20021;-73
2023/03/02 07:38:35;;;;;;;100.45;65.55;;;;;;;;;;5039385;28;20805;-73
2023/03/02 07:41:04;;;;;;;50.45;35.33;;;;;;;;;;5030783;28;20030;-73
2023/03/02 07:43:30;;;;;;;17.40;14.80;;;;;;;;;;5024166;28;20041;-74
2023/03/02 07:45:57;;;;;;;24.17;16.33;;;;;;;;;;5025333;28;20072;-73
2023/03/02 07:48:22;;;;;;;36.90;26.42;;;;;;;;;;5025919;28;20017;-77
2023/03/02 07:50:48;;;;;;;27.60;21.63;;;;;;;;;;5026320;28;20415;-74
2023/03/02 07:53:13;;;;;;;92.20;62.08;;;;;;;;;;5027982;28;20349;-73
2023/03/02 07:55:39;;;;;;;22.70;18.05;;;;;;;;;;5031016;28;20082;-77
2023/03/02 07:58:04;;;;;;;11.88;10.68;;;;;;;;;;5029482;28;20713;-72
2023/03/02 08:00:30;;;;;;;17.30;13.68;;;;;;;;;;5027418;28;20107;-74
2023/03/02 08:02:55;;;;;;;33.40;22.40;;;;;;;;;;5030726;28;20106;-72
2023/03/02 08:05:20;;;;;;;76.88;46.47;;;;;;;;;;5039427;28;20048;-75
2023/03/02 08:07:46;;;;;;;20.60;15.85;;;;;;;;;;5038221;28;20095;-74
2023/03/02 08:10:11;;;;;;;74.32;42.40;;;;;;;;;;5038178;28;20029;-77
2023/03/02 08:12:36;;;;;;;32.03;17.83;;;;;;;;;;5038950;28;20057;-77
2023/03/02 08:15:02;;;;;;;21.55;12.98;;;;;;;;;;5039302;28;20403;-76
2023/03/02 08:17:27;;;;;;;37.95;18.85;;;;;;;;;;5029496;28;20773;-81
2023/03/02 08:19:52;;;;;;;153.63;68.30;;;;;;;;;;5038969;28;20450;-78
2023/03/02 08:22:18;;;;;;;40.53;27.23;;;;;;;;;;5039913;28;20141;-75
2023/03/02 08:24:43;;;;;;;36.92;26.02;;;;;;;;;;5037581;28;20017;-71
2023/03/02 08:27:11;;;;;;;26.17;19.35;;;;;;;;;;5039100;28;20032;-78
2023/03/02 08:29:37;;;;;;;49.40;25.90;;;;;;;;;;5039612;28;20113;-72
2023/03/02 08:32:02;;;;;;;30.08;21.35;;;;;;;;;;5037923;28;20116;-74
2023/03/02 08:34:28;;;;;;;33.42;22.80;;;;;;;;;;5039415;28;20110;-72
2023/03/02 08:36:53;;;;;;;81.05;43.05;;;;;;;;;;5037444;28;20070;-71
2023/03/02 08:39:21;;;;;;;65.68;37.85;;;;;;;;;;5028653;28;20074;-72
2023/03/02 08:41:48;;;;;;;20.17;14.90;;;;;;;;;;5028769;28;20037;-75
2023/03/02 08:44:13;;;;;;;31.10;21.00;;;;;;;;;;5029491;28;20032;-77
2023/03/02 08:46:39;;;;;;;38.22;23.65;;;;;;;;;;5036163;28;20045;-79
2023/03/02 08:49:04;;;;;;;17.95;13.18;;;;;;;;;;5030529;28;20510;-74
2023/03/02 08:51:30;;;;;;;24.55;16.67;;;;;;;;;;5027787;28;20352;-73
2023/03/02 08:53:55;;;;;;;31.88;18.52;;;;;;;;;;5026916;28;20029;-78
2023/03/02 08:56:25;;;;;;;28.48;17.60;;;;;;;;;;5026822;28;20025;-75
2023/03/02 08:58:51;;;;;;;79.28;40.92;;;;;;;;;;5030468;28;20032;-81
2023/03/02 09:01:17;;;;;;;82.70;41.05;;;;;;;;;;5029151;28;20021;-79
2023/03/02 09:03:43;;;;;;;12.43;10.82;;;;;;;;;;5022629;28;20037;-75
2023/03/02 09:06:08;;;;;;;26.58;16.60;;;;;;;;;;5025554;28;20468;-75
2023/03/02 09:08:34;;;;;;;136.43;62.97;;;;;;;;;;5023376;28;20025;-74
2023/03/02 09:10:59;;;;;;;31.38;20.55;;;;;;;;;;5026798;28;20033;-76
2023/03/02 09:13:24;;;;;;;360.48;185.00;;;;;;;;;;5029918;28;20105;-73
2023/03/02 09:15:49;;;;;;;61.90;36.47;;;;;;;;;;5020933;28;20104;-73
2023/03/02 09:18:15;;;;;;;76.32;41.63;;;;;;;;;;5027420;28;20436;-73
2023/03/02 09:20:40;;;;;;;50.30;29.58;;;;;;;;;;5026635;28;20017;-72
2023/03/02 09:23:05;;;;;;;30.15;20.10;;;;;;;;;;5026168;28;20775;-80
2023/03/02 09:25:31;;;;;;;20.73;15.73;;;;;;;;;;5026470;28;20032;-74
2023/03/02 09:27:56;;;;;;;23.98;18.35;;;;;;;;;;5026465;28;20025;-72
2023/03/02 09:30:21;;;;;;;23.05;16.73;;;;;;;;;;5026972;28;20020;-78
2023/03/02 09:32:47;;;;;;;31.25;21.88;;;;;;;;;;5028497;28;20036;-76
2023/03/02 09:35:13;;;;;;;24.80;17.52;;;;;;;;;;5029718;28;20036;-72
2023/03/02 09:37:38;;;;;;;25.48;18.48;;;;;;;;;;5027489;28;20405;-73
2023/03/02 09:40:05;;;;;;;13.15;10.55;;;;;;;;;;5026972;28;20033;-73
2023/03/02 09:42:48;;;;;;;11.40;9.82;;;;;;;;;;5027497;28;20033;-73
2023/03/02 09:45:20;;;;;;;21.52;14.65;;;;;;;;;;5024545;28;20053;-74
2023/03/02 09:48:11;;;;;;;33.55;21.05;;;;;;;;;;5027501;28;20103;-72
2023/03/02 09:50:39;;;;;;;22.42;16.17;;;;;;;;;;5028034;28;20076;-73
2023/03/02 09:53:10;;;;;;;25.20;17.63;;;;;;;;;;5022933;28;21009;-75
2023/03/02 09:55:36;;;;;;;22.80;17.13;;;;;;;;;;5027697;28;20021;-77
2023/03/02 09:58:04;;;;;;;30.60;21.52;;;;;;;;;;5028281;28;20025;-83
2023/03/02 10:00:37;;;;;;;22.27;19.88;;;;;;;;;;5028117;28;20029;-75
2023/03/02 10:03:14;;;;;;;18.02;15.27;;;;;;;;;;5027781;28;20099;-82
2023/03/02 10:05:41;;;;;;;15.80;13.18;;;;;;;;;;5029845;28;21000;-75
2023/03/02 10:08:19;;;;;;;17.92;14.55;;;;;;;;;;5030082;28;20025;-74
2023/03/02 10:11:14;;;;;;;44.23;29.13;;;;;;;;;;5027933;28;20459;-76
2023/03/02 10:13:45;;;;;;;31.20;23.10;;;;;;;;;;5026499;28;20037;-77
2023/03/02 10:16:29;;;;;;;77.25;46.85;;;;;;;;;;5027563;28;20064;-81
2023/03/02 10:19:03;;;;;;;33.20;23.67;;;;;;;;;;5040472;28;20041;-75
2023/03/02 10:21:31;;;;;;;16.33;14.32;;;;;;;;;;5025059;28;20036;-75
2023/03/02 10:24:21;;;;;;;14.68;13.13;;;;;;;;;;5027140;28;20076;-88
2023/03/02 10:26:49;;;;;;;15.73;12.30;;;;;;;;;;5024116;28;20107;-83
2023/03/02 10:29:29;;;;;;;19.45;14.85;;;;;;;;;;5027349;28;20029;-82
2023/03/02 10:32:06;;;;;;;16.15;13.68;;;;;;;;;;5027214;28;20037;-76
2023/03/02 10:34:34;;;;;;;26.27;19.92;;;;;;;;;;5024732;28;20376;-81
2023/03/02 10:36:59;;;;;;;17.17;13.85;;;;;;;;;;5025412;28;20037;-78
2023/03/02 10:39:25;;;;;;;22.83;16.52;;;;;;;;;;5028133;28;20352;-76
2023/03/02 10:41:53;;;;;;;14.43;11.00;;;;;;;;;;5029952;28;20614;-86
2023/03/02 10:44:20;;;;;;;16.85;14.48;;;;;;;;;;5031849;28;20475;-75
2023/03/02 10:46:46;;;;;;;17.95;14.48;;;;;;;;;;5031131;28;20059;-78
2023/03/02 10:49:24;;;;;;;16.90;13.52;;;;;;;;;;5032816;28;20403;-77
2023/03/02 10:51:58;;;;;;;18.30;14.68;;;;;;;;;;5035851;28;20029;-76
2023/03/02 10:54:24;;;;;;;10.50;9.40;;;;;;;;;;5034487;28;20033;-78
2023/03/02 10:56:51;;;;;;;13.02;11.48;;;;;;;;;;5035617;28;20564;-76
2023/03/02 10:59:32;;;;;;;15.35;13.15;;;;;;;;;;5034812;28;20037;-77
2023/03/02 11:02:01;;;;;;;12.35;10.55;;;;;;;;;;5031626;28;20543;-80
2023/03/02 11:04:27;;;;;;;13.88;11.38;;;;;;;;;;5029838;28;20554;-77
2023/03/02 11:06:53;;;;;;;25.08;18.17;;;;;;;;;;5020456;28;20025;-76
2023/03/02 11:09:18;;;;;;;10.90;9.80;;;;;;;;;;5033635;28;20036;-78
2023/03/02 11:11:48;;;;;;;8.40;7.60;;;;;;;;;;5034907;28;20067;-75
2023/03/02 11:14:13;;;;;;;;;;;;;;;;;;5036872;28;20021;-77
2023/03/02 11:16:38;;;;;;;14.23;12.90;;;;;;;;;;5033431;28;19923;-77
2023/03/02 11:19:12;;;;;;;9.40;8.38;;;;;;;;;;5025170;28;20029;-78
2023/03/02 11:21:56;;;;;;;9.02;8.13;;;;;;;;;;5023441;28;20090;-78
2023/03/02 11:24:30;;;;;;;10.13;9.20;;;;;;;;;;5023761;28;20448;-76
2023/03/02 11:26:59;;;;;;;8.48;7.43;;;;;;;;;;5031078;28;20033;-75
2023/03/02 11:29:40;;;;;;;9.00;7.57;;;;;;;;;;5033728;28;20340;-75
2023/03/02 11:32:18;;;;;;;16.40;12.57;;;;;;;;;;5034496;28;20467;-76
2023/03/02 11:34:55;;;;;;;7.20;6.50;;;;;;;;;;5032205;28;20028;-82
2023/03/02 11:37:22;;;;;;;7.93;7.13;;;;;;;;;;5028833;28;20032;-80
2023/03/02 11:39:47;;;;;;;11.50;9.77;;;;;;;;;;5023839;28;20360;-80
2023/03/02 11:42:28;;;;;;;9.50;8.50;;;;;;;;;;5024832;28;20036;-80
2023/03/02 11:44:53;;;;;;;10.77;9.68;;;;;;;;;;5029211;28;20028;-81
2023/03/02 11:47:19;;;;;;;10.05;9.07;;;;;;;;;;5032381;28;20025;-78
2023/03/02 11:49:46;;;;;;;10.55;9.45;;;;;;;;;;5029360;28;20336;-76
2023/03/02 11:52:19;;;;;;;10.18;8.68;;;;;;;;;;5025352;28;20044;-78
2023/03/02 11:54:47;;;;;;;10.77;9.43;;;;;;;;;;5029079;28;20029;-79
2023/03/02 11:57:18;;;;;;;10.25;9.15;;;;;;;;;;5022638;28;20384;-75
2023/03/02 11:59:43;;;;;;;15.25;12.88;;;;;;;;;;5026247;28;20460;-75
2023/03/02 12:02:11;;;;;;;9.45;8.55;;;;;;;;;;5031633;28;20040;-75
2023/03/02 12:04:37;;;;;;;10.50;9.50;;;;;;;;;;5036564;28;20033;-84
2023/03/02 12:07:21;;;;;;;15.27;12.95;;;;;;;;;;5033569;28;20052;-75
2023/03/02 12:09:55;;;;;;;11.20;10.05;;;;;;;;;;5032768;28;20038;-75
2023/03/02 12:12:40;;;;;;;14.88;13.27;;;;;;;;;;5032544;28;20051;-76
2023/03/02 12:15:25;;;;;;;21.02;18.20;;;;;;;;;;5035304;28;20022;-77
2023/03/02 12:17:51;;;;;;;15.23;13.73;;;;;;;;;;5038328;28;20029;-77
2023/03/02 12:20:19;;;;;;;18.08;16.17;;;;;;;;;;5040315;28;20082;-81
2023/03/02 12:22:44;;;;;;;16.25;14.55;;;;;;;;;;5037031;28;20041;-78
2023/03/02 12:25:18;;;;;;;22.25;19.40;;;;;;;;;;5036840;28;20091;-75
2023/03/02 12:27:45;;;;;;;18.23;16.33;;;;;;;;;;5037609;28;20917;-78
2023/03/02 12:30:22;;;;;;;17.40;15.57;;;;;;;;;;5037052;28;20048;-77
2023/03/02 12:32:58;;;;;;;18.50;16.70;;;;;;;;;;5036024;28;20033;-75
2023/03/02 12:35:23;;;;;;;27.60;21.08;;;;;;;;;;5037910;28;20120;-75
2023/03/02 12:38:15;;;;;;;18.25;16.35;;;;;;;;;;5037265;28;20111;-76
2023/03/02 12:41:13;;;;;;;19.48;17.48;;;;;;;;;;5035225;28;20055;-80
2023/03/02 12:44:01;;;;;;;20.70;18.60;;;;;;;;;;5034629;28;20033;-75
2023/03/02 12:46:28;;;;;;;21.40;19.20;;;;;;;;;;5034140;28;20053;-76
2023/03/02 12:49:03;;;;;;;25.27;22.73;;;;;;;;;;5033223;28;20453;-74
2023/03/02 12:51:31;;;;;;;19.90;17.95;;;;;;;;;;5033808;28;20065;-79
2023/03/02 12:54:06;;;;;;;23.00;20.58;;;;;;;;;;5036374;28;20512;-75
2023/03/02 12:56:32;;;;;;;21.27;19.00;;;;;;;;;;5034282;28;20418;-77
2023/03/02 12:58:57;;;;;;;21.85;19.67;;;;;;;;;;5035714;28;20031;-74
2023/03/02 13:01:24;;;;;;;21.75;19.52;;;;;;;;;;5033616;28;20040;-78
2023/03/02 13:03:51;;;;;;;24.55;22.00;;;;;;;;;;5033988;28;20131;-75
2023/03/02 13:06:16;;;;;;;22.58;20.27;;;;;;;;;;5035279;28;20061;-75
2023/03/02 13:08:46;;;;;;;26.73;23.90;;;;;;;;;;5036259;28;20463;-74
2023/03/02 13:11:11;;;;;;;;;;;;;;;;;;5035548;28;20045;-75
2023/03/02 13:13:41;;;;;;;22.58;20.23;;;;;;;;;;5031856;28;19928;-73
2023/03/02 13:16:07;;;;;;;;;;;;;;;;;;5033257;28;20087;-76
2023/03/02 13:18:33;;;;;;;33.40;28.33;;;;;;;;;;5035815;28;19912;-73
2023/03/02 13:20:59;;;;;;;29.08;25.90;;;;;;;;;;5033678;28;20436;-74
2023/03/02 13:23:26;;;;;;;21.90;19.67;;;;;;;;;;5025372;28;20041;-75
2023/03/02 13:25:53;;;;;;;23.92;21.42;;;;;;;;;;5017871;28;20658;-81
2023/03/02 13:28:26;;;;;;;24.10;21.60;;;;;;;;;;5016340;28;20052;-73
2023/03/02 13:31:10;;;;;;;24.85;22.35;;;;;;;;;;5017140;28;20025;-75
2023/03/02 13:33:42;;;;;;;24.23;21.73;;;;;;;;;;5017758;28;20521;-75
2023/03/02 13:36:07;;;;;;;23.42;20.90;;;;;;;;;;5016989;28;20013;-74
2023/03/02 13:38:35;;;;;;;22.67;19.83;;;;;;;;;;5016306;28;20029;-73
2023/03/02 13:41:01;;;;;;;24.00;21.52;;;;;;;;;;5015082;28;20066;-76
2023/03/02 13:43:26;;;;;;;21.08;19.02;;;;;;;;;;5017782;28;20064;-83
2023/03/02 13:45:55;;;;;;;27.92;22.50;;;;;;;;;;5027159;28;20049;-80
2023/03/02 13:48:21;;;;;;;21.95;19.70;;;;;;;;;;5033253;28;20028;-74
2023/03/02 13:50:55;;;;;;;36.28;29.65;;;;;;;;;;5032861;28;20029;-84
2023/03/02 13:53:20;;;;;;;26.13;23.63;;;;;;;;;;5034817;28;20476;-74
2023/03/02 13:55:46;;;;;;;29.75;26.67;;;;;;;;;;5036561;28;20028;-76
2023/03/02 13:58:15;;;;;;;26.65;23.95;;;;;;;;;;5035462;28;20048;-77
2023/03/02 14:00:40;;;;;;;26.70;24.00;;;;;;;;;;5035480;28;20467;-74
2023/03/02 14:03:35;;;;;;;27.52;24.63;;;;;;;;;;5034718;28;20031;-79
2023/03/02 14:06:00;;;;;;;20.77;18.63;;;;;;;;;;5033313;28;20077;-76
2023/03/02 14:08:25;;;;;;;25.10;22.65;;;;;;;;;;5035094;28;20125;-74
2023/03/02 14:10:52;;;;;;;28.17;25.40;;;;;;;;;;5032790;28;20083;-78
2023/03/02 14:13:37;;;;;;;24.52;22.13;;;;;;;;;;5032417;28;20036;-78
2023/03/02 14:16:03;;;;;;;26.63;23.92;;;;;;;;;;5030809;28;20766;-73
2023/03/02 14:18:34;;;;;;;26.77;24.13;;;;;;;;;;5033966;28;20433;-74
2023/03/02 14:20:59;;;;;;;49.90;39.42;;;;;;;;;;5041343;28;20025;-75
2023/03/02 14:23:25;;;;;;;26.70;23.80;;;;;;;;;;5025715;28;20052;-75
2023/03/02 14:25:51;;;;;;;56.30;44.10;;;;;;;;;;5033659;28;20056;-76
2023/03/02 14:28:21;;;;;;;23.88;21.45;;;;;;;;;;5030811;28;20028;-74
2023/03/02 14:30:46;;;;;;;27.45;24.67;;;;;;;;;;5025716;28;20033;-74